Time;durP1;ratioP1;P1;durP2;ratioP2;P2;SDS_P1;SDS_P2;PMS_P1;PMS_P2;Temp;Humidity;BMP_temperature;BMP_pressure;BME280_temperature;BME280_humidity;BME280_pressure;Samples;Min_cycle;Max_cycle;Signal;HPM_P1;HPM_P2
2021/06/26 00:00:17;;;;;;;5.23;4.33;;;;;;;27.25;51.58;99610.72;3442605;28;20038;-69
2021/06/26 00:01:59;;;;;;;9.93;4.80;;;;;;;27.26;51.39;99601.41;3442742;28;20045;-69
2021/06/26 00:03:40;;;;;;;5.18;4.05;;;;;;;27.23;51.57;99596.53;3442919;28;20034;-69
2021/06/26 00:05:20;;;;;;;6.73;5.40;;;;;;;27.21;51.70;99593.31;3438545;28;20133;-68
2021/06/26 00:07:01;;;;;;;5.27;4.03;;;;;;;27.20;50.91;99599.88;3436059;28;20300;-69
2021/06/26 00:08:42;;;;;;;6.40;5.00;;;;;;;27.20;51.80;99591.66;3436010;28;20096;-70
2021/06/26 00:10:23;;;;;;;9.53;4.40;;;;;;;27.20;51.41;99586.19;3438746;28;20038;-68
2021/06/26 00:12:04;;;;;;;6.80;3.83;;;;;;;27.21;51.60;99590.56;3436869;28;20046;-69
2021/06/26 00:13:45;;;;;;;5.63;4.55;;;;;;;27.22;51.62;99594.91;3437986;28;20448;-68
2021/06/26 00:15:25;;;;;;;6.37;4.00;;;;;;;27.21;52.15;99604.25;3442357;28;20038;-69
2021/06/26 00:17:06;;;;;;;4.93;3.97;;;;;;;27.19;51.85;99593.59;3442793;28;20042;-68
2021/06/26 00:18:47;;;;;;;5.67;4.10;;;;;;;27.18;51.85;99600.19;3444186;28;20109;-70
2021/06/26 00:20:27;;;;;;;7.80;4.87;;;;;;;27.17;51.63;99601.31;3442921;28;20046;-68
2021/06/26 00:22:09;;;;;;;6.38;4.75;;;;;;;27.16;52.03;99604.34;3443267;28;20050;-69
2021/06/26 00:23:49;;;;;;;9.60;4.37;;;;;;;27.15;52.14;99605.44;3440730;28;20457;-71
2021/06/26 00:25:30;;;;;;;8.23;4.83;;;;;;;27.15;52.29;99606.22;3453615;28;20532;-70
2021/06/26 00:27:11;;;;;;;5.13;4.40;;;;;;;27.17;52.32;99608.69;3447188;28;20556;-70
2021/06/26 00:28:52;;;;;;;6.37;4.00;;;;;;;27.15;52.21;99610.91;3443028;28;20329;-70
2021/06/26 00:30:36;;;;;;;8.57;4.57;;;;;;;27.12;51.77;99611.53;3443567;28;20042;-70
2021/06/26 00:32:16;;;;;;;7.65;4.32;;;;;;;27.11;51.53;99607.19;3443728;28;20026;-70
2021/06/26 00:33:57;;;;;;;10.63;4.23;;;;;;;27.11;52.24;99607.19;3443325;28;20042;-72
2021/06/26 00:35:38;;;;;;;5.60;3.73;;;;;;;27.12;51.90;99600.56;3442440;28;20066;-68
2021/06/26 00:37:25;;;;;;;7.68;4.22;;;;;;;27.13;52.33;99594.81;3443447;28;20038;-68
2021/06/26 00:39:05;;;;;;;7.73;4.87;;;;;;;27.14;52.25;99590.13;3443493;28;20093;-68
2021/06/26 00:40:46;;;;;;;7.63;5.10;;;;;;;27.15;51.92;99589.81;3442632;28;20073;-69
2021/06/26 00:42:31;;;;;;;7.27;4.50;;;;;;;27.16;52.93;99585.97;3442293;28;20042;-68
2021/06/26 00:44:12;;;;;;;7.40;4.13;;;;;;;27.17;52.91;99581.31;3442157;28;20604;-69
2021/06/26 00:45:54;;;;;;;5.67;4.30;;;;;;;27.18;53.04;99586.53;3442657;28;20042;-73
2021/06/26 00:47:36;;;;;;;4.82;4.22;;;;;;;27.21;53.07;99581.53;3441448;28;20085;-71
2021/06/26 00:49:16;;;;;;;5.93;4.35;;;;;;;27.22;53.22;99572.22;3442660;28;20045;-69
2021/06/26 00:50:57;;;;;;;13.80;4.60;;;;;;;27.23;53.01;99574.63;3443379;28;20038;-68
2021/06/26 00:52:38;;;;;;;6.37;4.13;;;;;;;27.24;53.06;99570.78;3445087;28;20042;-67
2021/06/26 00:54:19;;;;;;;8.97;4.60;;;;;;;27.25;53.52;99568.84;3446738;28;20050;-68
2021/06/26 00:56:02;;;;;;;7.47;4.63;;;;;;;27.25;52.98;99563.38;3446570;28;20038;-68
2021/06/26 00:57:45;;;;;;;7.88;4.60;;;;;;;27.23;52.98;99562.88;3445147;28;20049;-70
2021/06/26 00:59:28;;;;;;;7.40;4.75;;;;;;;27.22;53.02;99566.75;3438454;28;20094;-70
2021/06/26 01:01:11;;;;;;;6.80;5.00;;;;;;;27.20;52.84;99564.31;3434962;28;20038;-70
2021/06/26 01:02:53;;;;;;;12.73;6.00;;;;;;;27.14;52.42;99565.50;3441397;28;20062;-70
2021/06/26 01:04:35;;;;;;;8.93;5.60;;;;;;;27.10;52.65;99565.31;3431594;28;20097;-69
2021/06/26 01:06:18;;;;;;;8.57;5.20;;;;;;;27.08;52.91;99567.56;3428054;28;20050;-68
2021/06/26 01:07:59;;;;;;;7.18;4.50;;;;;;;27.08;52.95;99569.47;3428537;28;20130;-68
2021/06/26 01:09:39;;;;;;;11.10;4.60;;;;;;;27.08;52.59;99569.47;3428802;28;20130;-69
2021/06/26 01:11:22;;;;;;;7.20;5.03;;;;;;;27.08;53.13;99580.41;3428294;28;20043;-69
2021/06/26 01:13:04;;;;;;;9.77;4.82;;;;;;;27.09;53.12;99569.16;3427921;28;21692;-68
2021/06/26 01:14:48;;;;;;;8.48;5.40;;;;;;;27.10;53.16;99570.78;3428749;28;20043;-67
2021/06/26 01:16:29;;;;;;;6.07;5.03;;;;;;;27.10;52.75;99580.91;3434414;28;20124;-69
2021/06/26 01:18:10;;;;;;;12.63;4.95;;;;;;;27.10;52.68;99575.44;3433384;28;20242;-70
2021/06/26 01:19:52;;;;;;;7.60;5.00;;;;;;;27.05;52.71;99584.56;3441264;28;20073;-68
2021/06/26 01:21:36;;;;;;;10.77;5.40;;;;;;;26.96;52.85;99587.22;3438960;28;20125;-70
2021/06/26 01:23:17;;;;;;;13.85;6.18;;;;;;;26.88;52.64;99573.47;3431039;28;20052;-69
2021/06/26 01:24:58;;;;;;;9.57;5.90;;;;;;;26.85;52.96;99572.16;3429007;28;20521;-69
2021/06/26 01:26:40;;;;;;;12.53;6.67;;;;;;;26.84;53.00;99573.25;3435101;28;20034;-70
2021/06/26 01:28:20;;;;;;;7.38;5.45;;;;;;;26.86;53.20;99570.22;3442221;28;20449;-70
2021/06/26 01:30:01;;;;;;;14.57;5.70;;;;;;;26.88;52.97;99578.94;3442583;28;20093;-70
2021/06/26 01:31:43;;;;;;;10.02;5.03;;;;;;;26.90;52.96;99568.47;3442038;28;20034;-70
2021/06/26 01:33:23;;;;;;;7.90;5.25;;;;;;;26.90;53.03;99566.56;3441625;28;20125;-69
2021/06/26 01:35:05;;;;;;;10.63;5.00;;;;;;;26.93;53.17;99574.16;3441542;28;20464;-70
2021/06/26 01:36:46;;;;;;;12.25;5.53;;;;;;;26.91;53.22;99562.72;3442824;28;20573;-71
2021/06/26 01:38:27;;;;;;;10.63;5.20;;;;;;;26.94;53.20;99567.56;3441420;28;20054;-69
2021/06/26 01:40:09;;;;;;;6.72;4.97;;;;;;;26.95;52.99;99566.47;3441516;28;20038;-69
2021/06/26 01:41:50;;;;;;;14.05;5.82;;;;;;;26.95;53.52;99566.47;3440510;28;20398;-69
2021/06/26 01:43:31;;;;;;;5.53;4.90;;;;;;;26.97;53.19;99560.66;3441085;28;20080;-69
2021/06/26 01:45:13;;;;;;;5.90;4.60;;;;;;;26.97;53.71;99564.22;3435207;28;20449;-70
2021/06/26 01:46:53;;;;;;;;;;;;;;;27.03;53.00;99562.19;3440189;28;20038;-70
2021/06/26 01:48:34;;;;;;;14.77;5.20;;;;;;;26.98;53.62;99557.66;3440736;28;19918;-70
2021/06/26 01:50:16;;;;;;;10.83;5.67;;;;;;;26.97;53.30;99552.47;3440914;28;20457;-70
2021/06/26 01:51:56;;;;;;;;;;;;;;;27.01;52.77;99556.22;3441820;28;20084;-69
2021/06/26 01:53:37;;;;;;;9.43;4.93;;;;;;;27.00;53.27;99553.78;3440746;28;19921;-70
2021/06/26 01:55:19;;;;;;;7.17;4.17;;;;;;;27.03;53.88;99553.16;3441477;28;20050;-71
2021/06/26 01:57:00;;;;;;;8.05;5.78;;;;;;;27.02;53.17;99546.88;3441760;28;20037;-70
2021/06/26 01:58:41;;;;;;;6.97;5.20;;;;;;;27.01;53.42;99534.34;3440346;28;20074;-70
2021/06/26 02:00:23;;;;;;;7.90;5.83;;;;;;;27.00;53.38;99545.56;3440711;28;20038;-71
2021/06/26 02:02:05;;;;;;;8.05;5.15;;;;;;;27.00;53.45;99540.91;3440704;28;20129;-70
2021/06/26 02:03:46;;;;;;;;;;;;;;;27.07;53.14;99535.81;3441852;28;20035;-69
2021/06/26 02:05:28;;;;;;;8.50;4.97;;;;;;;27.05;53.45;99540.00;3441326;28;20442;-69
2021/06/26 02:07:09;;;;;;;11.37;6.27;;;;;;;27.06;52.92;99547.09;3441733;28;20039;-70
2021/06/26 02:08:49;;;;;;;7.63;4.50;;;;;;;27.08;53.29;99539.38;3441281;28;20409;-69
2021/06/26 02:10:30;;;;;;;10.23;5.13;;;;;;;27.11;53.84;99525.91;3441630;28;20042;-70
2021/06/26 02:12:11;;;;;;;6.10;5.50;;;;;;;27.14;53.52;99530.75;3441522;28;20128;-69
2021/06/26 02:13:52;;;;;;;8.50;5.57;;;;;;;27.14;53.04;99538.16;3441794;28;20041;-69
2021/06/26 02:15:32;;;;;;;9.13;5.37;;;;;;;27.15;53.33;99535.09;3441186;28;20042;-70
2021/06/26 02:17:13;;;;;;;8.37;5.63;;;;;;;27.16;53.17;99542.19;3440409;28;20042;-70
2021/06/26 02:18:54;;;;;;;8.07;5.13;;;;;;;27.21;53.08;99545.94;3440748;28;20039;-70
2021/06/26 02:20:36;;;;;;;10.95;5.97;;;;;;;27.23;53.08;99544.53;3440701;28;20054;-71
2021/06/26 02:22:17;;;;;;;12.17;5.00;;;;;;;27.25;53.22;99539.56;3441053;28;20038;-67
2021/06/26 02:23:58;;;;;;;9.13;5.30;;;;;;;27.28;52.95;99538.94;3440835;28;20390;-71
2021/06/26 02:25:39;;;;;;;11.57;6.57;;;;;;;27.27;53.20;99534.59;3439605;28;20045;-71
2021/06/26 02:27:20;;;;;;;10.23;5.97;;;;;;;27.28;53.21;99538.94;3441831;28;20125;-71
2021/06/26 02:29:00;;;;;;;14.00;5.33;;;;;;;27.27;52.81;99534.59;3440823;28;20044;-70
2021/06/26 02:30:41;;;;;;;10.07;5.32;;;;;;;27.29;52.89;99537.84;3440926;28;20042;-72
2021/06/26 02:32:22;;;;;;;9.30;5.60;;;;;;;27.29;52.44;99531.56;3441172;28;20140;-69
2021/06/26 02:34:03;;;;;;;7.87;5.67;;;;;;;27.29;53.03;99540.56;3441308;28;20038;-71
2021/06/26 02:35:43;;;;;;;11.60;5.83;;;;;;;27.29;52.67;99537.84;3439774;28;20053;-75
2021/06/26 02:37:24;;;;;;;10.57;5.83;;;;;;;27.26;52.58;99541.19;3425742;28;20085;-75
2021/06/26 02:39:05;;;;;;;12.60;5.93;;;;;;;27.18;52.16;99534.53;3438409;28;20038;-78
2021/06/26 02:40:46;;;;;;;9.33;5.33;;;;;;;27.13;52.15;99542.81;3431495;28;20121;-78
2021/06/26 02:42:28;;;;;;;10.07;5.97;;;;;;;27.09;52.38;99535.53;3426475;28;20094;-76
2021/06/26 02:44:09;;;;;;;14.17;5.47;;;;;;;27.07;52.33;99548.69;3440288;28;20038;-77
2021/06/26 02:45:49;;;;;;;9.07;6.07;;;;;;;27.03;52.25;99544.94;3440451;28;20343;-79
2021/06/26 02:47:30;;;;;;;6.20;5.43;;;;;;;27.06;52.24;99534.22;3450536;28;20034;-79
2021/06/26 02:49:11;;;;;;;15.23;6.07;;;;;;;27.05;51.72;99540.00;3440886;28;20129;-80
2021/06/26 02:50:52;;;;;;;10.63;5.50;;;;;;;27.10;52.06;99542.59;3434774;28;20125;-80
2021/06/26 02:52:33;;;;;;;14.47;6.00;;;;;;;27.08;52.13;99540.19;3435739;28;20125;-79
2021/06/26 02:54:13;;;;;;;10.37;6.27;;;;;;;27.09;51.54;99541.00;3434238;28;20046;-77
2021/06/26 02:55:57;;;;;;;7.77;5.20;;;;;;;27.08;51.80;99544.84;3428437;28;20035;-78
2021/06/26 02:57:38;;;;;;;11.90;6.40;;;;;;;27.13;51.91;99547.47;3432437;28;20409;-76
2021/06/26 02:59:19;;;;;;;10.98;6.10;;;;;;;27.16;51.89;99550.41;3432854;28;20043;-77
2021/06/26 03:01:00;;;;;;;13.23;6.33;;;;;;;27.19;52.03;99552.56;3440522;28;20050;-77
2021/06/26 03:02:41;;;;;;;10.75;6.15;;;;;;;27.19;51.64;99532.59;3452084;28;20045;-77
2021/06/26 03:04:21;;;;;;;7.60;6.30;;;;;;;27.18;51.56;99536.44;3435330;28;20054;-77
2021/06/26 03:06:02;;;;;;;12.27;6.70;;;;;;;27.19;51.44;99546.28;3433513;28;20294;-77
2021/06/26 03:07:50;;;;;;;10.30;5.67;;;;;;;27.23;51.56;99552.72;3435447;28;20035;-78
2021/06/26 03:09:31;;;;;;;9.27;4.95;;;;;;;27.22;51.77;99547.59;3427592;28;20584;-77
2021/06/26 03:11:12;;;;;;;6.03;5.43;;;;;;;27.22;51.32;99542.91;3435271;28;20031;-78
2021/06/26 03:12:53;;;;;;;12.13;5.23;;;;;;;27.23;51.35;99541.78;3430775;28;20042;-79
2021/06/26 03:14:33;;;;;;;9.63;5.63;;;;;;;27.27;51.70;99545.53;3441330;28;20046;-79
2021/06/26 03:16:14;;;;;;;6.73;5.60;;;;;;;27.27;51.11;99537.31;3440701;28;20506;-77
2021/06/26 03:17:55;;;;;;;11.93;5.85;;;;;;;27.32;51.49;99545.41;3437212;28;20038;-78
2021/06/26 03:19:37;;;;;;;14.30;6.57;;;;;;;27.38;51.26;99546.09;3431223;28;20042;-79
2021/06/26 03:21:17;;;;;;;14.70;6.00;;;;;;;27.38;51.38;99548.84;3438253;28;20054;-79
2021/06/26 03:22:58;;;;;;;12.80;6.27;;;;;;;27.39;51.11;99537.59;3430983;28;20116;-79
2021/06/26 03:24:39;;;;;;;16.43;7.07;;;;;;;27.40;51.19;99536.47;3437759;28;20418;-77
2021/06/26 03:26:20;;;;;;;9.10;6.03;;;;;;;27.44;50.99;99536.63;3438248;28;20089;-78
2021/06/26 03:28:00;;;;;;;20.80;5.67;;;;;;;27.45;50.97;99540.22;3450140;28;20524;-78
2021/06/26 03:29:41;;;;;;;19.27;6.13;;;;;;;27.35;51.42;99517.41;3445608;28;20042;-78
2021/06/26 03:31:22;;;;;;;8.17;5.17;;;;;;;27.48;51.39;99531.38;3444430;28;20340;-80
2021/06/26 03:33:03;;;;;;;15.10;7.10;;;;;;;27.46;51.10;99528.13;3442394;28;21259;-79
2021/06/26 03:34:44;;;;;;;10.87;6.13;;;;;;;27.50;50.73;99540.09;3443066;28;20046;-77
2021/06/26 03:36:25;;;;;;;13.83;5.70;;;;;;;27.50;51.23;99535.41;3443201;28;20300;-77
2021/06/26 03:38:06;;;;;;;11.23;6.40;;;;;;;27.53;50.77;99531.25;3428619;28;20038;-80
2021/06/26 03:39:46;;;;;;;14.32;5.93;;;;;;;27.57;51.17;99526.75;3437013;28;20049;-77
2021/06/26 03:41:27;;;;;;;14.17;6.07;;;;;;;27.62;50.58;99532.09;3435087;28;20056;-75
2021/06/26 03:43:09;;;;;;;;;;;;;;;27.69;50.79;99545.38;3435229;28;20049;-77
2021/06/26 03:44:50;;;;;;;7.70;5.00;;;;;;;27.63;50.59;99533.72;3437075;28;20388;-73
2021/06/26 03:46:30;;;;;;;13.00;6.47;;;;;;;27.63;50.83;99533.72;3439865;28;20250;-72
2021/06/26 03:48:11;;;;;;;14.67;5.63;;;;;;;27.58;50.53;99542.88;3434452;28;20038;-73
2021/06/26 03:49:52;;;;;;;12.90;5.60;;;;;;;27.55;50.47;99542.69;3435444;28;20600;-72
2021/06/26 03:51:33;;;;;;;11.33;6.47;;;;;;;27.50;50.56;99529.13;3440617;28;20082;-73
2021/06/26 03:53:14;;;;;;;12.33;6.40;;;;;;;27.52;51.03;99538.66;3434563;28;20042;-73
2021/06/26 03:54:54;;;;;;;12.60;5.23;;;;;;;27.53;50.54;99534.78;3436629;28;20038;-72
2021/06/26 03:56:35;;;;;;;8.53;5.80;;;;;;;27.55;50.78;99527.06;3433529;28;20042;-73
2021/06/26 03:58:16;;;;;;;11.00;5.57;;;;;;;27.59;50.88;99527.25;3434441;28;20133;-71
2021/06/26 03:59:56;;;;;;;9.47;5.60;;;;;;;27.61;50.59;99531.28;3435831;28;20035;-75
2021/06/26 04:01:37;;;;;;;11.13;6.43;;;;;;;27.62;50.74;99527.47;3437347;28;20031;-75
2021/06/26 04:03:18;;;;;;;12.00;6.77;;;;;;;27.65;50.75;99526.03;3437219;28;20047;-77
2021/06/26 04:04:59;;;;;;;15.30;5.87;;;;;;;27.66;50.79;99530.38;3435247;28;21330;-76
2021/06/26 04:06:39;;;;;;;10.93;5.90;;;;;;;27.67;50.36;99540.19;3437539;28;20042;-74
2021/06/26 04:08:20;;;;;;;14.90;6.27;;;;;;;27.67;50.41;99534.72;3437440;28;20061;-77
2021/06/26 04:10:01;;;;;;;13.27;5.77;;;;;;;27.70;50.39;99538.75;3436069;28;20038;-76
2021/06/26 04:11:42;;;;;;;15.33;6.00;;;;;;;27.71;50.66;99541.19;3434887;28;20571;-76
2021/06/26 04:13:22;;;;;;;6.80;5.30;;;;;;;27.72;50.31;99542.00;3435506;28;20045;-76
2021/06/26 04:15:04;;;;;;;15.37;5.83;;;;;;;27.70;50.27;99533.28;3433941;28;20106;-77
2021/06/26 04:16:45;;;;;;;9.15;5.25;;;;;;;27.79;50.44;99548.66;3429005;28;20042;-76
2021/06/26 04:18:25;;;;;;;7.83;5.20;;;;;;;27.82;50.10;99548.06;3420299;28;20031;-74
2021/06/26 04:20:06;;;;;;;18.20;7.30;;;;;;;27.86;50.25;99539.22;3434471;28;20038;-74
2021/06/26 04:21:47;;;;;;;15.15;6.50;;;;;;;27.89;50.19;99544.06;3442671;28;20580;-71
2021/06/26 04:23:28;;;;;;;9.67;5.37;;;;;;;27.94;49.87;99552.97;3441456;28;20113;-74
2021/06/26 04:25:09;;;;;;;14.90;5.97;;;;;;;27.97;49.75;99555.06;3441829;28;20083;-75
2021/06/26 04:26:50;;;;;;;14.77;5.60;;;;;;;27.97;49.76;99554.28;3442897;28;20034;-74
2021/06/26 04:28:31;;;;;;;13.98;5.93;;;;;;;28.00;49.91;99556.38;3443067;28;20057;-73
2021/06/26 04:30:14;;;;;;;15.88;6.03;;;;;;;28.01;49.80;99560.72;3441659;28;20038;-74
2021/06/26 04:31:55;;;;;;;;;;;;;;;28.09;49.79;99559.16;3443286;28;20034;-75
2021/06/26 04:33:36;;;;;;;18.30;5.78;;;;;;;28.08;49.56;99561.09;3442729;28;19933;-74
2021/06/26 04:35:20;;;;;;;11.50;6.33;;;;;;;28.09;49.72;99557.25;3442085;28;20042;-74
2021/06/26 04:37:01;;;;;;;16.15;5.97;;;;;;;28.09;49.27;99556.41;3442785;28;20497;-79
2021/06/26 04:38:42;;;;;;;13.52;5.63;;;;;;;28.10;49.11;99553.38;3443636;28;20039;-80
2021/06/26 04:40:23;;;;;;;11.65;5.68;;;;;;;28.20;48.91;99558.56;3414585;29;20442;-75
2021/06/26 04:42:04;;;;;;;10.20;5.88;;;;;;;28.26;48.83;99562.00;3436986;28;20066;-75
2021/06/26 04:43:45;;;;;;;23.40;6.37;;;;;;;28.33;49.07;99556.88;3442301;28;20042;-75
2021/06/26 04:45:25;;;;;;;23.33;6.57;;;;;;;28.44;48.66;99565.66;3441756;28;20050;-75
2021/06/26 04:47:07;;;;;;;18.77;6.53;;;;;;;28.52;48.59;99564.84;3441258;28;20043;-73
2021/06/26 04:48:48;;;;;;;21.73;6.38;;;;;;;28.54;48.40;99556.34;3442058;28;20035;-74
2021/06/26 04:50:30;;;;;;;13.47;6.43;;;;;;;28.61;48.74;99567.66;3441080;28;20416;-74
2021/06/26 04:52:11;;;;;;;14.43;5.93;;;;;;;28.61;48.48;99565.72;3438471;28;20363;-75
2021/06/26 04:53:52;;;;;;;14.50;6.53;;;;;;;28.58;48.42;99552.63;3442555;28;20509;-74
2021/06/26 04:55:34;;;;;;;7.40;5.40;;;;;;;28.60;47.77;99558.59;3441356;28;20092;-74
2021/06/26 04:57:15;;;;;;;15.05;5.75;;;;;;;28.41;47.79;99525.94;3445591;28;20041;-74
2021/06/26 04:58:56;;;;;;;20.20;7.73;;;;;;;28.66;47.54;99571.06;3441550;28;20545;-75
2021/06/26 05:00:37;;;;;;;16.30;7.15;;;;;;;28.67;47.81;99569.09;3438673;28;20077;-75
2021/06/26 05:02:18;;;;;;;21.10;7.53;;;;;;;28.68;47.84;99567.97;3438455;28;20058;-73
2021/06/26 05:03:58;;;;;;;9.93;5.87;;;;;;;28.72;47.51;99562.69;3442175;28;20042;-74
2021/06/26 05:05:41;;;;;;;9.50;5.20;;;;;;;28.77;47.61;99566.06;3442666;28;20038;-74
2021/06/26 05:07:21;;;;;;;10.73;5.18;;;;;;;28.86;47.52;99563.34;3441133;28;20097;-74
2021/06/26 05:09:03;;;;;;;8.67;6.33;;;;;;;28.95;47.08;99560.63;3442107;28;20042;-75
2021/06/26 05:10:44;;;;;;;11.63;4.68;;;;;;;28.95;46.91;99550.47;3441337;28;20297;-74
2021/06/26 05:12:27;;;;;;;9.77;5.75;;;;;;;29.05;46.96;99558.41;3441716;28;20049;-75
2021/06/26 05:14:09;;;;;;;10.03;4.67;;;;;;;29.11;46.37;99570.03;3441279;28;20042;-73
2021/06/26 05:15:51;;;;;;;11.88;5.47;;;;;;;29.18;46.24;99566.81;3441586;28;20502;-74
2021/06/26 05:17:32;;;;;;;11.55;5.10;;;;;;;29.20;45.96;99546.16;3441020;28;20046;-75
2021/06/26 05:19:12;;;;;;;10.13;4.50;;;;;;;29.30;45.49;99559.56;3439478;28;20042;-73
2021/06/26 05:20:54;;;;;;;9.90;4.57;;;;;;;29.37;45.28;99553.56;3434531;28;20034;-75
2021/06/26 05:22:35;;;;;;;11.40;5.10;;;;;;;29.43;45.19;99551.47;3444684;28;20104;-77
2021/06/26 05:24:16;;;;;;;6.93;4.53;;;;;;;29.51;45.03;99548.72;3432452;28;20038;-70
2021/06/26 05:25:57;;;;;;;7.65;5.00;;;;;;;29.56;44.62;99542.28;3437366;28;20202;-72
2021/06/26 05:27:37;;;;;;;7.77;4.67;;;;;;;29.63;44.67;99547.25;3433250;28;20039;-73
2021/06/26 05:29:18;;;;;;;10.17;4.53;;;;;;;29.64;44.55;99544.19;3433881;28;20053;-84
2021/06/26 05:30:59;;;;;;;10.95;3.88;;;;;;;29.74;43.91;99551.31;3442315;28;20476;-76
2021/06/26 05:32:40;;;;;;;11.47;4.37;;;;;;;29.75;43.65;99541.94;3447926;28;20042;-78
2021/06/26 05:34:20;;;;;;;8.03;3.87;;;;;;;29.83;43.73;99543.84;3436326;28;20039;-75
2021/06/26 05:36:01;;;;;;;12.03;4.80;;;;;;;29.91;44.12;99551.28;3450421;28;20388;-81
2021/06/26 05:37:43;;;;;;;13.83;6.13;;;;;;;29.95;43.66;99544.00;3441853;28;20042;-81
2021/06/26 05:39:24;;;;;;;7.78;4.90;;;;;;;29.96;43.67;99540.09;3429035;28;20689;-81
2021/06/26 05:41:05;;;;;;;12.10;4.95;;;;;;;30.04;43.99;99534.91;3438829;28;20039;-78
2021/06/26 05:42:45;;;;;;;9.47;5.47;;;;;;;30.07;44.00;99535.06;3441296;28;20529;-78
2021/06/26 05:44:26;;;;;;;8.50;4.70;;;;;;;30.11;43.86;99529.72;3435158;28;20038;-77
2021/06/26 05:46:07;;;;;;;8.73;4.32;;;;;;;30.16;43.56;99526.78;3436692;28;20145;-78
2021/06/26 05:47:48;;;;;;;13.18;4.45;;;;;;;30.25;43.16;99535.81;3435439;28;20031;-78
2021/06/26 05:49:28;;;;;;;10.93;4.83;;;;;;;30.29;43.09;99536.00;3438981;28;20042;-78
2021/06/26 05:51:14;;;;;;;5.83;4.07;;;;;;;30.31;43.04;99529.03;3437875;28;20289;-79
2021/06/26 05:52:55;;;;;;;11.30;4.45;;;;;;;30.37;42.95;99532.38;3441646;28;20347;-79
2021/06/26 05:54:36;;;;;;;12.00;5.10;;;;;;;30.43;42.88;99531.06;3441570;28;20121;-79
2021/06/26 05:56:18;;;;;;;11.77;5.28;;;;;;;30.43;42.77;99526.34;3441719;28;20051;-79
2021/06/26 05:57:59;;;;;;;8.20;4.33;;;;;;;30.45;43.05;99517.78;3441226;28;20042;-79
2021/06/26 05:59:39;;;;;;;16.08;5.35;;;;;;;30.54;42.82;99514.97;3442092;28;20501;-78
2021/06/26 06:01:20;;;;;;;14.77;5.20;;;;;;;30.63;42.72;99526.75;3441704;28;20121;-77
2021/06/26 06:03:02;;;;;;;11.00;4.93;;;;;;;30.69;42.18;99521.84;3432539;28;20046;-78
2021/06/26 06:04:43;;;;;;;10.10;4.90;;;;;;;30.75;42.10;99529.59;3427699;28;20074;-79
2021/06/26 06:06:24;;;;;;;14.27;4.85;;;;;;;30.82;42.07;99529.91;3430530;28;20093;-77
2021/06/26 06:08:05;;;;;;;12.25;4.90;;;;;;;30.91;41.54;99526.28;3439169;28;20042;-78
2021/06/26 06:09:45;;;;;;;19.40;5.77;;;;;;;30.96;41.38;99520.59;3433941;28;20197;-79
2021/06/26 06:11:26;;;;;;;32.07;5.53;;;;;;;31.04;41.21;99519.72;3430642;28;20046;-78
2021/06/26 06:13:14;;;;;;;40.08;7.55;;;;;;;31.11;41.31;99525.50;3442530;28;20046;-78
2021/06/26 06:14:55;;;;;;;24.52;6.43;;;;;;;31.10;41.08;99515.59;3435102;28;20049;-77
2021/06/26 06:16:37;;;;;;;31.02;6.53;;;;;;;31.11;40.98;99517.22;3435365;28;20050;-77
2021/06/26 06:18:19;;;;;;;18.58;5.93;;;;;;;31.17;40.95;99537.91;3432705;28;20525;-78
2021/06/26 06:20:04;;;;;;;13.57;5.50;;;;;;;31.23;40.90;99533.78;3435823;28;20143;-79
2021/06/26 06:21:45;;;;;;;24.05;7.00;;;;;;;31.27;40.88;99531.19;3436229;28;20043;-78
2021/06/26 06:23:25;;;;;;;17.70;6.15;;;;;;;31.36;40.91;99531.91;3435087;28;20045;-78
2021/06/26 06:25:11;;;;;;;15.40;6.43;;;;;;;31.40;40.94;99535.63;3435895;28;20038;-79
2021/06/26 06:26:51;;;;;;;24.00;6.85;;;;;;;31.48;40.94;99533.94;3433210;28;20045;-78
2021/06/26 06:28:33;;;;;;;17.83;5.33;;;;;;;31.53;40.69;99542.00;3429849;28;20035;-77
2021/06/26 06:30:14;;;;;;;15.40;5.10;;;;;;;31.61;40.47;99537.56;3441555;28;20736;-77
2021/06/26 06:31:55;;;;;;;11.80;5.00;;;;;;;31.66;40.15;99527.13;3441848;28;20046;-78
2021/06/26 06:33:36;;;;;;;15.77;5.20;;;;;;;31.70;39.75;99527.22;3441701;28;20041;-76
2021/06/26 06:35:17;;;;;;;13.95;5.35;;;;;;;31.79;40.18;99524.41;3433627;28;20301;-76
2021/06/26 06:36:58;;;;;;;17.95;5.43;;;;;;;31.88;40.83;99533.38;3434505;28;20042;-76
2021/06/26 06:38:38;;;;;;;15.13;5.82;;;;;;;32.03;40.98;99526.44;3439874;28;20125;-76
2021/06/26 06:40:21;;;;;;;15.48;7.28;;;;;;;32.16;41.88;99531.59;3437349;28;20042;-78
2021/06/26 06:42:02;;;;;;;10.40;6.43;;;;;;;32.22;41.91;99515.66;3411161;28;20506;-78
2021/06/26 06:43:43;;;;;;;15.95;7.00;;;;;;;32.45;42.10;99526.22;3425544;28;20395;-76
2021/06/26 06:45:28;;;;;;;23.63;8.98;;;;;;;32.58;42.36;99539.72;3432891;28;20195;-76
2021/06/26 06:47:08;;;;;;;19.30;8.18;;;;;;;32.69;42.50;99542.00;3436219;28;20149;-75
2021/06/26 06:48:50;;;;;;;24.70;14.17;;;;;;;32.78;42.43;99534.38;3433323;28;20050;-75
2021/06/26 06:50:32;;;;;;;35.17;27.13;;;;;;;32.91;42.15;99535.97;3429324;28;20049;-74
2021/06/26 06:52:13;;;;;;;23.20;15.10;;;;;;;33.05;41.91;99541.16;3426935;28;20030;-74
2021/06/26 06:53:58;;;;;;;23.42;13.85;;;;;;;33.12;41.92;99546.91;3431806;28;20849;-76
2021/06/26 06:55:39;;;;;;;15.55;10.38;;;;;;;33.31;41.58;99551.00;3429748;28;20050;-76
2021/06/26 06:57:24;;;;;;;12.95;8.40;;;;;;;33.39;41.26;99548.06;3422901;28;20042;-76
2021/06/26 06:59:05;;;;;;;17.00;9.00;;;;;;;33.50;41.11;99542.03;3429386;28;20113;-76
2021/06/26 07:00:47;;;;;;;17.23;8.20;;;;;;;33.58;41.17;99552.16;3430432;28;20039;-77
2021/06/26 07:02:28;;;;;;;21.45;8.30;;;;;;;33.67;41.03;99545.34;3435306;28;20043;-76
2021/06/26 07:04:09;;;;;;;15.52;7.78;;;;;;;33.76;41.41;99538.84;3430545;28;20105;-76
2021/06/26 07:05:50;;;;;;;19.63;9.00;;;;;;;33.84;40.79;99537.88;3430493;28;20490;-75
2021/06/26 07:07:32;;;;;;;15.77;8.25;;;;;;;33.94;41.21;99539.31;3429981;28;20570;-76
2021/06/26 07:09:14;;;;;;;;;;;;;;;34.03;40.72;99539.94;3429255;28;20049;-75
2021/06/26 07:10:56;;;;;;;14.98;7.35;;;;;;;34.05;41.02;99527.38;3430539;28;19922;-77
2021/06/26 07:12:37;;;;;;;14.43;7.38;;;;;;;34.19;40.82;99538.00;3434112;28;20051;-76
2021/06/26 07:14:17;;;;;;;16.48;7.15;;;;;;;34.30;40.16;99539.06;3430053;28;20132;-75
2021/06/26 07:15:59;;;;;;;21.58;8.90;;;;;;;34.40;40.39;99542.47;3440690;28;20044;-76
2021/06/26 07:17:41;;;;;;;16.35;8.10;;;;;;;34.46;39.93;99541.03;3454571;28;20124;-76
2021/06/26 07:19:22;;;;;;;17.58;7.78;;;;;;;34.52;39.42;99539.59;3432731;28;20046;-76
2021/06/26 07:21:03;;;;;;;17.85;7.88;;;;;;;34.56;39.86;99529.41;3430003;28;20418;-76
2021/06/26 07:22:43;;;;;;;17.10;8.43;;;;;;;34.63;39.41;99524.06;3429927;28;20125;-75
2021/06/26 07:24:24;;;;;;;16.00;7.75;;;;;;;34.70;39.11;99529.78;3429704;28;20042;-77
2021/06/26 07:26:06;;;;;;;8.40;7.03;;;;;;;34.78;39.02;99541.03;3429690;28;20038;-76
2021/06/26 07:27:49;;;;;;;17.80;7.97;;;;;;;34.85;39.14;99538.38;3430206;28;20042;-75
2021/06/26 07:29:30;;;;;;;14.50;7.95;;;;;;;34.93;38.44;99540.19;3440299;28;20470;-76
2021/06/26 07:31:11;;;;;;;17.55;7.20;;;;;;;34.98;38.26;99526.00;3438134;28;20039;-76
2021/06/26 07:32:52;;;;;;;19.23;7.63;;;;;;;35.12;38.49;99539.41;3433051;28;20034;-75
2021/06/26 07:34:35;;;;;;;14.57;6.22;;;;;;;35.18;37.40;99544.28;3437965;28;20077;-77
2021/06/26 07:36:16;;;;;;;16.52;6.07;;;;;;;35.27;36.92;99537.75;3462374;28;20049;-76
2021/06/26 07:37:57;;;;;;;23.63;7.57;;;;;;;35.36;36.72;99536.34;3448392;28;20043;-76
2021/06/26 07:39:37;;;;;;;14.45;7.22;;;;;;;35.48;36.65;99546.50;3451989;28;20041;-76
2021/06/26 07:41:18;;;;;;;13.23;6.78;;;;;;;35.58;36.33;99545.94;3444653;28;20034;-76
2021/06/26 07:42:59;;;;;;;20.88;8.02;;;;;;;35.67;36.54;99542.13;3431689;28;20442;-77
2021/06/26 07:44:40;;;;;;;17.60;7.45;;;;;;;35.74;35.76;99547.81;3430576;28;20133;-76
2021/06/26 07:46:21;;;;;;;17.08;6.80;;;;;;;35.78;35.85;99545.88;3429210;28;20078;-76
2021/06/26 07:48:03;;;;;;;27.92;7.03;;;;;;;35.84;35.07;99544.44;3426841;28;20073;-76
2021/06/26 07:49:44;;;;;;;16.23;6.03;;;;;;;35.93;34.61;99547.75;3429813;28;20101;-76
2021/06/26 07:51:25;;;;;;;;;;;;;;;36.06;34.96;99547.56;3430986;28;20054;-76
2021/06/26 07:53:05;;;;;;;13.47;6.03;;;;;;;35.98;34.66;99533.56;3430592;28;20020;-77